createdAt,value
2018-06-20T00:01:21.446Z,99.90
2018-06-20T00:03:52.526Z,99.90
2018-06-20T00:06:24.942Z,99.90
2018-06-20T00:08:55.722Z,99.90
2018-06-20T00:11:26.068Z,99.90
2018-06-20T00:13:55.958Z,99.90
2018-06-20T00:16:30.574Z,99.90
2018-06-20T00:19:00.387Z,99.90
2018-06-20T00:21:31.455Z,99.90
2018-06-20T00:24:05.785Z,99.90
2018-06-20T00:26:37.239Z,99.90
2018-06-20T00:29:07.111Z,99.90
2018-06-20T00:31:37.093Z,99.90
2018-06-20T00:34:08.992Z,99.90
2018-06-20T00:36:40.761Z,99.90
2018-06-20T00:39:11.090Z,99.90
2018-06-20T00:41:39.996Z,99.90
2018-06-20T00:44:11.530Z,99.90
2018-06-20T00:46:42.820Z,99.90
2018-06-20T00:49:12.325Z,99.90
2018-06-20T00:51:42.398Z,99.90
2018-06-20T00:54:12.996Z,99.90
2018-06-20T00:56:42.352Z,99.90
2018-06-20T00:59:11.838Z,99.90
2018-06-20T01:01:41.365Z,99.90
2018-06-20T01:04:21.135Z,99.90
2018-06-20T01:06:50.247Z,99.90
2018-06-20T01:09:19.133Z,99.90
2018-06-20T01:11:49.163Z,99.90
2018-06-20T01:14:20.527Z,99.90
2018-06-20T01:16:50.678Z,99.90
2018-06-20T01:19:20.396Z,99.90
2018-06-20T01:21:50.710Z,99.90
2018-06-20T01:24:20.844Z,99.90
2018-06-20T01:26:49.907Z,99.90
2018-06-20T01:29:19.092Z,99.90
2018-06-20T01:31:51.505Z,99.90
2018-06-20T01:34:22.254Z,99.90
2018-06-20T01:36:51.220Z,99.90
2018-06-20T01:39:26.259Z,99.90
2018-06-20T01:41:56.538Z,99.90
2018-06-20T01:44:26.796Z,99.90
2018-06-20T01:46:56.544Z,99.90
2018-06-20T01:49:25.652Z,99.90
2018-06-20T01:51:55.346Z,99.90
2018-06-20T01:54:25.588Z,99.90
2018-06-20T01:56:56.371Z,99.90
2018-06-20T01:59:25.292Z,99.90
2018-06-20T02:01:54.185Z,99.90
2018-06-20T02:04:24.506Z,99.90
2018-06-20T02:06:53.795Z,99.90
2018-06-20T02:09:22.732Z,99.90
2018-06-20T02:11:53.795Z,99.90
2018-06-20T02:14:22.969Z,99.90
2018-06-20T02:16:53.267Z,99.90
2018-06-20T02:19:22.238Z,99.90
2018-06-20T02:21:51.514Z,99.90
2018-06-20T02:24:20.713Z,99.90
2018-06-20T02:26:49.713Z,99.90
2018-06-20T02:29:18.552Z,99.90
2018-06-20T02:31:48.111Z,99.90
2018-06-20T02:34:17.212Z,99.90
2018-06-20T02:36:46.331Z,99.90
2018-06-20T02:39:15.173Z,99.90
2018-06-20T02:41:44.182Z,99.90
2018-06-20T02:44:13.797Z,99.90
2018-06-20T02:46:42.585Z,99.90
2018-06-20T02:49:11.453Z,99.90
2018-06-20T02:51:40.387Z,99.90
2018-06-20T02:54:09.343Z,99.90
2018-06-20T02:56:39.621Z,99.90
2018-06-20T02:59:08.760Z,99.90
2018-06-20T03:01:37.792Z,99.90
2018-06-20T03:04:06.859Z,99.90
2018-06-20T03:06:35.791Z,99.90
2018-06-20T03:09:11.992Z,99.90
2018-06-20T03:11:41.071Z,99.90
2018-06-20T03:14:09.942Z,99.90
2018-06-20T03:16:38.977Z,99.90
2018-06-20T03:19:07.793Z,99.90
2018-06-20T03:21:36.523Z,99.90
2018-06-20T03:24:06.198Z,99.90
2018-06-20T03:26:34.980Z,99.90
2018-06-20T03:29:03.972Z,99.90
2018-06-20T03:31:32.693Z,99.90
2018-06-20T03:34:01.529Z,99.90
2018-06-20T03:36:30.363Z,99.90
2018-06-20T03:38:59.495Z,99.90
2018-06-20T03:41:28.268Z,99.90
2018-06-20T03:43:57.445Z,99.90
2018-06-20T03:46:26.343Z,99.90
2018-06-20T03:48:56.907Z,99.90
2018-06-20T03:51:26.027Z,99.90
2018-06-20T03:53:54.984Z,99.90
2018-06-20T03:56:24.137Z,99.90
2018-06-20T03:58:53.415Z,99.90
2018-06-20T04:01:22.325Z,99.90
2018-06-20T04:03:52.540Z,99.90
2018-06-20T04:06:21.346Z,99.90
2018-06-20T04:08:50.230Z,99.90
2018-06-20T04:11:19.128Z,99.90
2018-06-20T04:13:48.914Z,99.90
2018-06-20T04:16:17.811Z,99.90
2018-06-20T04:18:47.605Z,99.90
2018-06-20T04:21:17.703Z,99.90
2018-06-20T04:23:46.616Z,99.90
2018-06-20T04:26:15.427Z,99.90
2018-06-20T04:31:12.843Z,99.90
2018-06-20T04:33:41.678Z,99.90
2018-06-20T04:36:12.341Z,99.90
2018-06-20T04:38:41.526Z,99.90
2018-06-20T04:41:10.423Z,99.90
2018-06-20T04:43:39.541Z,99.90
2018-06-20T04:46:09.168Z,99.90
2018-06-20T04:48:40.036Z,99.90
2018-06-20T04:51:10.635Z,99.90
2018-06-20T04:53:44.411Z,99.90
2018-06-20T04:56:13.728Z,99.90
2018-06-20T04:58:46.931Z,99.90
2018-06-20T05:01:16.782Z,99.90
2018-06-20T05:03:49.766Z,99.90
2018-06-20T05:06:19.939Z,99.90
2018-06-20T05:11:18.442Z,99.90
2018-06-20T05:13:47.265Z,99.90
2018-06-20T05:16:17.069Z,99.90
2018-06-20T05:18:48.281Z,99.90
2018-06-20T05:21:17.207Z,99.90
2018-06-20T05:23:46.958Z,99.90
2018-06-20T05:26:17.756Z,99.90
2018-06-20T05:28:46.880Z,99.90
2018-06-20T05:31:15.612Z,99.90
2018-06-20T05:33:44.680Z,99.90
2018-06-20T05:36:13.482Z,99.90
2018-06-20T05:38:42.674Z,99.90
2018-06-20T05:41:12.010Z,99.90
2018-06-20T05:46:10.206Z,99.90
2018-06-20T05:48:39.454Z,99.90
2018-06-20T05:51:09.848Z,99.90
2018-06-20T05:53:39.459Z,99.90
2018-06-20T05:56:08.460Z,99.90
2018-06-20T05:58:37.311Z,99.90
2018-06-20T06:01:06.503Z,99.90
2018-06-20T06:03:35.423Z,99.90
2018-06-20T06:06:16.087Z,99.90
2018-06-20T06:08:45.803Z,99.90
2018-06-20T06:11:14.617Z,99.90
2018-06-20T06:13:43.442Z,99.90
2018-06-20T06:16:13.182Z,99.90
2018-06-20T06:18:42.652Z,99.90
2018-06-20T06:21:12.329Z,99.90
2018-06-20T06:23:42.035Z,99.90
2018-06-20T06:26:11.012Z,99.90
2018-06-20T06:28:39.704Z,99.90
2018-06-20T06:31:08.544Z,99.90
2018-06-20T06:33:37.381Z,99.90
2018-06-20T06:36:06.937Z,99.90
2018-06-20T06:38:35.699Z,99.90
2018-06-20T06:41:04.611Z,99.90
2018-06-20T06:43:33.397Z,99.90
2018-06-20T06:46:02.338Z,99.90
2018-06-20T06:48:32.035Z,99.90
2018-06-20T06:51:00.929Z,99.90
2018-06-20T06:53:29.811Z,99.90
2018-06-20T06:55:58.724Z,99.90
2018-06-20T06:58:28.540Z,99.90
2018-06-20T07:00:57.560Z,99.90
2018-06-20T07:03:27.932Z,99.90
2018-06-20T07:05:57.064Z,99.90
2018-06-20T07:08:25.780Z,99.90
2018-06-20T07:10:55.109Z,99.90
2018-06-20T08:09:02.855Z,99.90
2018-06-20T08:11:36.801Z,99.90
2018-06-20T08:14:10.931Z,99.90
2018-06-20T08:16:44.982Z,99.90
2018-06-20T08:19:18.941Z,99.90
2018-06-20T08:21:47.600Z,99.90
2018-06-20T08:24:16.226Z,99.90
2018-06-20T08:26:44.930Z,99.90
2018-06-20T08:29:13.640Z,99.90
2018-06-20T08:31:42.306Z,99.90
2018-06-20T08:34:10.980Z,99.90
2018-06-20T08:36:39.674Z,99.90
2018-06-20T08:39:09.386Z,99.90
2018-06-20T08:41:37.993Z,99.90
2018-06-20T08:44:06.678Z,99.90
2018-06-20T08:46:35.460Z,99.90
2018-06-20T08:49:04.151Z,99.90
2018-06-20T08:51:33.527Z,99.90
2018-06-20T08:54:02.189Z,99.90
2018-06-20T08:56:30.834Z,99.90
2018-06-20T08:58:59.469Z,99.90
2018-06-20T09:01:28.077Z,99.90
2018-06-20T09:04:02.129Z,99.90
2018-06-20T09:06:36.135Z,99.90
2018-06-20T09:09:12.273Z,99.90
2018-06-20T09:11:46.135Z,99.90
2018-06-20T09:14:14.850Z,99.90
2018-06-20T09:16:48.970Z,99.90
2018-06-20T09:19:22.928Z,99.90
2018-06-20T09:21:51.590Z,99.90
2018-06-20T09:24:20.239Z,99.90
2018-06-20T09:26:48.904Z,99.90
2018-06-20T09:29:17.524Z,99.90
2018-06-20T09:31:46.214Z,99.90
2018-06-20T09:34:14.868Z,99.90
2018-06-20T09:36:43.536Z,99.90
2018-06-20T09:39:12.157Z,99.90
2018-06-20T09:44:09.235Z,99.90
2018-06-20T09:46:38.003Z,99.90
2018-06-20T09:49:06.707Z,99.90
2018-06-20T09:56:31.994Z,99.90
2018-06-20T09:59:05.917Z,99.90
2018-06-20T10:01:39.958Z,99.90
2018-06-20T10:04:13.886Z,99.90
2018-06-20T10:06:47.992Z,99.90
2018-06-20T10:09:21.939Z,99.90
2018-06-20T10:11:55.912Z,99.90
2018-06-20T10:14:24.591Z,99.90
2018-06-20T10:16:53.262Z,99.90
2018-06-20T10:19:22.027Z,99.90
2018-06-20T10:21:50.632Z,99.90
2018-06-20T10:24:19.334Z,99.90
2018-06-20T10:26:47.971Z,99.90
2018-06-20T10:29:16.591Z,99.90
2018-06-20T10:31:45.246Z,99.90
2018-06-20T10:34:14.001Z,99.90
2018-06-20T10:36:42.642Z,99.90
2018-06-20T10:39:12.049Z,99.90
2018-06-20T10:41:41.226Z,99.90
2018-06-20T10:44:13.097Z,99.90
2018-06-20T10:46:47.277Z,99.90
2018-06-20T10:49:17.026Z,99.90
2018-06-20T10:51:46.142Z,99.90
2018-06-20T10:54:14.791Z,99.90
2018-06-20T10:56:48.828Z,99.90
2018-06-20T10:59:22.824Z,99.90
2018-06-20T11:04:30.338Z,99.90
2018-06-20T11:08:07.204Z,99.90
2018-06-20T11:10:41.060Z,99.90
2018-06-20T11:13:11.609Z,99.90
2018-06-20T11:15:40.315Z,99.90
2018-06-20T11:18:08.997Z,99.90
2018-06-20T11:20:43.009Z,99.90
2018-06-20T11:23:11.660Z,99.90
2018-06-20T11:25:40.433Z,99.90
2018-06-20T11:28:14.091Z,99.90
2018-06-20T11:30:44.003Z,99.90
2018-06-20T11:33:12.880Z,99.90
2018-06-20T11:35:41.876Z,99.90
2018-06-20T11:38:10.538Z,99.90
2018-06-20T11:40:39.258Z,99.90
2018-06-20T11:43:07.965Z,99.90
2018-06-20T11:45:42.010Z,99.90
2018-06-20T11:48:10.637Z,99.90
2018-06-20T11:50:39.320Z,99.50
2018-06-20T11:53:09.192Z,99.30
2018-06-20T11:55:42.789Z,99.50
2018-06-20T11:58:16.811Z,99.70
2018-06-20T12:01:49.139Z,99.20
2018-06-20T12:05:21.647Z,98.80
2018-06-20T12:07:55.695Z,98.50
2018-06-20T12:10:29.724Z,98.40
2018-06-20T12:13:03.821Z,98.70
2018-06-20T12:15:37.660Z,98.30
2018-06-20T12:18:11.629Z,98.20
2018-06-20T12:20:45.548Z,98.20
2018-06-20T12:23:19.558Z,97.50
2018-06-20T12:25:53.464Z,98.30
2018-06-20T12:28:27.368Z,98.00
2018-06-20T12:31:01.360Z,97.20
2018-06-20T12:33:35.392Z,97.30
2018-06-20T12:36:09.399Z,96.60
2018-06-20T12:38:43.652Z,97.00
2018-06-20T12:41:17.533Z,96.70
2018-06-20T12:43:51.535Z,96.40
2018-06-20T12:46:33.087Z,96.80
2018-06-20T12:49:01.785Z,96.20
2018-06-20T12:51:30.411Z,96.50
2018-06-20T12:53:59.325Z,96.70
2018-06-20T12:56:28.037Z,96.30
2018-06-20T12:58:56.694Z,96.40
2018-06-20T13:01:25.304Z,96.60
2018-06-20T13:03:54.138Z,96.70
2018-06-20T13:06:22.786Z,96.60
2018-06-20T13:08:51.498Z,96.00
2018-06-20T13:11:20.148Z,95.50
2018-06-20T13:13:48.856Z,94.90
2018-06-20T13:16:17.509Z,95.30
2018-06-20T13:18:59.104Z,95.20
2018-06-20T13:21:28.350Z,95.10
2018-06-20T13:23:57.057Z,95.50
2018-06-20T13:26:26.083Z,95.70
2018-06-20T13:28:55.097Z,95.10
2018-06-20T13:31:29.009Z,95.20
2018-06-20T13:34:03.029Z,95.40
2018-06-20T13:36:36.854Z,95.20
2018-06-20T13:39:12.843Z,94.90
2018-06-20T13:41:47.519Z,94.60
2018-06-20T13:44:21.568Z,94.70
2018-06-20T13:46:55.558Z,94.00
2018-06-20T13:49:24.240Z,94.40
2018-06-20T13:51:52.891Z,94.70
2018-06-20T13:54:21.532Z,94.20
2018-06-20T13:56:50.886Z,94.30
2018-06-20T13:59:19.547Z,94.20
2018-06-20T14:01:48.217Z,93.90
2018-06-20T14:04:16.869Z,94.10
2018-06-20T14:06:45.532Z,93.80
2018-06-20T14:09:14.197Z,94.00
2018-06-20T14:11:43.292Z,93.00
2018-06-20T14:14:11.927Z,93.70
2018-06-20T14:16:40.604Z,93.00
2018-06-20T14:19:09.277Z,92.70
2018-06-20T14:21:39.430Z,93.10
2018-06-20T14:24:09.736Z,93.60
2018-06-20T14:26:39.558Z,92.60
2018-06-20T14:29:09.198Z,93.00
2018-06-20T14:31:43.058Z,92.20
2018-06-20T14:34:16.941Z,92.20
2018-06-20T14:36:50.900Z,92.20
2018-06-20T14:39:24.816Z,92.50
2018-06-20T14:41:58.856Z,92.50
2018-06-20T14:44:27.542Z,92.30
2018-06-20T14:46:56.298Z,92.80
2018-06-20T14:49:24.941Z,91.90
2018-06-20T14:51:53.717Z,91.50
2018-06-20T14:54:22.403Z,91.70
2018-06-20T14:56:51.068Z,91.40
2018-06-20T14:59:19.772Z,91.90
2018-06-20T15:01:48.408Z,91.70
2018-06-20T15:04:17.011Z,91.20
2018-06-20T15:06:45.729Z,91.70
2018-06-20T15:09:14.437Z,90.90
2018-06-20T15:16:44.918Z,90.80
2018-06-20T15:19:14.330Z,90.20
2018-06-20T15:21:43.021Z,91.20
2018-06-20T15:24:11.716Z,91.10
2018-06-20T15:26:45.627Z,90.70
2018-06-20T15:29:19.681Z,89.80
2018-06-20T15:31:53.550Z,89.90
2018-06-20T15:34:28.413Z,89.90
2018-06-20T15:37:02.435Z,88.90
2018-06-20T15:39:31.095Z,88.50
2018-06-20T15:41:59.721Z,88.70
2018-06-20T15:44:28.420Z,88.40
2018-06-20T15:46:57.148Z,87.70
2018-06-20T15:49:25.754Z,87.40
2018-06-20T15:51:54.406Z,86.30
2018-06-20T15:54:23.129Z,85.90
2018-06-20T15:56:51.892Z,84.70
2018-06-20T15:59:20.541Z,84.80
2018-06-20T16:01:49.309Z,85.00
2018-06-20T16:04:17.958Z,84.50
2018-06-20T16:06:46.608Z,84.80
2018-06-20T16:09:20.606Z,85.60
2018-06-20T16:11:49.360Z,86.10
2018-06-20T16:14:18.044Z,87.40
2018-06-20T16:16:46.719Z,87.40
2018-06-20T16:19:20.592Z,87.30
2018-06-20T16:21:54.499Z,88.50
2018-06-20T16:24:29.280Z,88.30
2018-06-20T16:27:03.221Z,89.00
2018-06-20T16:29:37.214Z,89.80
2018-06-20T16:32:05.905Z,90.40
2018-06-20T16:34:34.561Z,89.50
2018-06-20T16:37:03.237Z,89.60
2018-06-20T16:39:31.907Z,89.80
2018-06-20T16:42:00.672Z,91.00
2018-06-20T16:44:30.123Z,90.70
2018-06-20T16:46:59.953Z,91.30
2018-06-20T16:49:29.432Z,91.00
2018-06-20T16:51:58.177Z,91.00
2018-06-20T16:54:26.803Z,90.90
2018-06-20T16:56:55.452Z,90.80
2018-06-20T16:59:24.088Z,90.90
2018-06-20T17:01:57.937Z,90.80
2018-06-20T17:04:26.601Z,91.30
2018-06-20T17:06:55.345Z,91.90
2018-06-20T17:09:24.074Z,92.30
2018-06-20T17:11:58.098Z,91.70
2018-06-20T17:14:32.029Z,90.80
2018-06-20T17:19:39.849Z,91.40
2018-06-20T17:22:13.776Z,92.30
2018-06-20T17:24:48.688Z,92.90
2018-06-20T17:27:17.294Z,93.10
2018-06-20T17:29:45.931Z,93.40
2018-06-20T17:32:14.792Z,93.30
2018-06-20T17:34:44.662Z,93.30
2018-06-20T17:37:13.316Z,92.90
2018-06-20T17:39:41.948Z,93.20
2018-06-20T17:42:10.531Z,93.10
2018-06-20T17:44:39.159Z,93.00
2018-06-20T17:47:08.415Z,93.50
2018-06-20T17:49:37.151Z,93.50
2018-06-20T17:52:05.833Z,93.60
2018-06-20T17:54:34.717Z,93.60
2018-06-20T17:57:03.409Z,93.90
2018-06-20T17:59:32.067Z,94.00
2018-06-20T18:02:00.729Z,94.10
2018-06-20T18:05:36.307Z,94.40
2018-06-20T18:08:10.272Z,94.50
2018-06-20T18:10:44.340Z,94.80
2018-06-20T18:13:12.974Z,95.00
2018-06-20T18:15:47.002Z,95.20
2018-06-20T18:18:15.618Z,95.30
2018-06-20T18:20:44.290Z,95.30
2018-06-20T18:25:41.381Z,95.60
2018-06-20T18:28:09.998Z,95.90
2018-06-20T18:30:38.763Z,96.00
2018-06-20T18:33:07.405Z,96.00
2018-06-20T18:35:36.080Z,95.80
2018-06-20T18:38:05.910Z,95.60
2018-06-20T18:40:35.161Z,95.60
2018-06-20T18:43:03.824Z,95.70
2018-06-20T18:45:32.672Z,95.00
2018-06-20T18:48:06.559Z,94.90
2018-06-20T18:50:35.275Z,94.30
2018-06-20T18:53:03.940Z,94.60
2018-06-20T18:55:32.607Z,94.30
2018-06-20T18:58:06.615Z,94.30
2018-06-20T19:00:40.678Z,94.30
2018-06-20T19:03:14.890Z,94.30
2018-06-20T19:05:48.846Z,94.50
2018-06-20T19:08:22.794Z,94.70
2018-06-20T19:10:51.400Z,94.60
2018-06-20T19:13:21.023Z,94.70
2018-06-20T19:15:49.735Z,94.70
2018-06-20T19:18:18.401Z,95.30
2018-06-20T19:20:47.115Z,95.00
2018-06-20T19:23:15.765Z,95.20
2018-06-20T19:25:44.418Z,95.60
2018-06-20T19:28:13.067Z,95.30
2018-06-20T19:30:41.864Z,95.80
2018-06-20T19:33:10.641Z,95.70
2018-06-20T19:35:39.324Z,95.80
2018-06-20T19:38:08.021Z,95.90
2018-06-20T19:40:36.710Z,96.10
2018-06-20T19:43:05.366Z,96.20
2018-06-20T19:45:34.052Z,96.30
2018-06-20T19:48:02.872Z,96.80
2018-06-20T19:50:31.521Z,96.70
2018-06-20T19:53:00.153Z,97.10
2018-06-20T19:55:28.827Z,97.50
2018-06-20T19:57:57.526Z,97.50
2018-06-20T20:00:26.229Z,97.70
2018-06-20T20:02:54.899Z,98.10
2018-06-20T20:05:23.633Z,98.30
2018-06-20T20:07:52.842Z,98.50
2018-06-20T20:10:21.842Z,98.70
2018-06-20T20:12:50.459Z,98.80
2018-06-20T20:15:19.142Z,99.00
2018-06-20T20:17:47.916Z,99.20
2018-06-20T20:20:16.699Z,99.40
2018-06-20T20:22:45.404Z,99.50
2018-06-20T20:25:14.048Z,99.70
2018-06-20T20:27:43.370Z,99.90
2018-06-20T20:30:12.042Z,99.90
2018-06-20T20:32:40.676Z,99.90
2018-06-20T20:35:09.347Z,99.90
2018-06-20T20:37:38.011Z,99.90
2018-06-20T20:40:06.911Z,99.90
2018-06-20T20:42:35.554Z,99.90
2018-06-20T20:45:04.179Z,99.90
2018-06-20T20:47:32.881Z,99.90
2018-06-20T20:50:01.571Z,99.90
2018-06-20T20:52:30.188Z,99.90
2018-06-20T20:54:58.906Z,99.90
2018-06-20T20:57:27.546Z,99.90
2018-06-20T20:59:56.286Z,99.90
2018-06-20T21:02:25.066Z,99.90
2018-06-20T21:04:53.683Z,99.90
2018-06-20T21:07:22.334Z,99.90
2018-06-20T21:09:51.072Z,99.90
2018-06-20T21:12:19.750Z,99.90
2018-06-20T21:14:48.404Z,99.90
2018-06-20T21:17:17.026Z,99.90
2018-06-20T21:19:45.707Z,99.90
2018-06-20T21:22:14.338Z,99.90
2018-06-20T21:24:43.014Z,99.90
2018-06-20T21:27:11.657Z,99.90
2018-06-20T21:32:08.605Z,99.90
2018-06-20T21:34:37.227Z,99.90
2018-06-20T21:37:05.993Z,99.90
2018-06-20T21:39:34.584Z,99.90
2018-06-20T21:42:03.214Z,99.90
2018-06-20T21:44:31.884Z,99.90
2018-06-20T21:47:00.582Z,99.90
2018-06-20T21:49:29.215Z,99.90
2018-06-20T21:51:57.923Z,99.90
2018-06-20T21:54:26.705Z,99.90
2018-06-20T21:56:55.398Z,99.90
2018-06-20T21:59:24.060Z,99.90
2018-06-20T22:01:52.823Z,99.90
2018-06-20T22:04:21.451Z,99.90
2018-06-20T22:06:50.024Z,99.90
2018-06-20T22:09:18.685Z,99.90
2018-06-20T22:11:47.424Z,99.90
2018-06-20T22:14:16.064Z,99.90
2018-06-20T22:16:44.733Z,99.90
2018-06-20T22:19:13.301Z,99.90
2018-06-20T22:21:41.911Z,99.90
2018-06-20T22:26:38.830Z,99.90
2018-06-20T22:29:07.479Z,99.90
2018-06-20T22:34:04.432Z,99.90
2018-06-20T22:39:01.434Z,99.90
2018-06-20T22:41:30.076Z,99.90
2018-06-20T22:43:58.797Z,99.90
2018-06-20T22:46:27.464Z,99.90
2018-06-20T22:48:56.151Z,99.90
2018-06-20T22:51:24.800Z,99.90
2018-06-20T22:53:54.404Z,99.90
2018-06-20T22:56:23.187Z,99.90
2018-06-20T22:58:51.900Z,99.90
2018-06-20T23:01:20.546Z,99.90
2018-06-20T23:03:49.276Z,99.90
2018-06-20T23:06:18.022Z,99.90
2018-06-20T23:08:46.756Z,99.90
2018-06-20T23:11:15.420Z,99.90
2018-06-20T23:13:44.059Z,99.90
2018-06-20T23:16:12.805Z,99.90
2018-06-20T23:21:10.823Z,99.90
2018-06-20T23:23:39.500Z,99.90
2018-06-20T23:26:08.195Z,99.90
2018-06-20T23:28:36.924Z,99.90
2018-06-20T23:31:06.041Z,99.90
2018-06-20T23:33:34.731Z,99.90
2018-06-20T23:36:03.545Z,99.90
2018-06-20T23:38:32.189Z,99.90
2018-06-20T23:41:00.847Z,99.90
2018-06-20T23:43:29.527Z,99.90
2018-06-20T23:45:58.237Z,99.90
2018-06-20T23:48:27.015Z,99.90
2018-06-20T23:50:55.802Z,99.90
2018-06-20T23:53:24.442Z,99.90
2018-06-20T23:55:53.180Z,99.90
2018-06-20T23:58:21.878Z,99.90
